sensor_id;sensor_type;location;lat;lon;timestamp;P1;durP1;ratioP1;P2;durP2;ratioP2
6388;SDS011;3227;42.654;23.360;2022-08-19T00:00:09;16.05;;;7.05;;
6388;SDS011;3227;42.654;23.360;2022-08-19T00:02:39;8.57;;;5.93;;
6388;SDS011;3227;42.654;23.360;2022-08-19T00:05:07;10.65;;;5.93;;
6388;SDS011;3227;42.654;23.360;2022-08-19T00:07:35;10.07;;;6.22;;
6388;SDS011;3227;42.654;23.360;2022-08-19T00:10:02;8.45;;;5.93;;
6388;SDS011;3227;42.654;23.360;2022-08-19T00:12:32;14.65;;;6.32;;
6388;SDS011;3227;42.654;23.360;2022-08-19T00:14:59;12.60;;;6.35;;
6388;SDS011;3227;42.654;23.360;2022-08-19T00:17:26;10.30;;;6.63;;
6388;SDS011;3227;42.654;23.360;2022-08-19T00:19:53;10.95;;;6.57;;
6388;SDS011;3227;42.654;23.360;2022-08-19T00:22:19;12.80;;;6.10;;
6388;SDS011;3227;42.654;23.360;2022-08-19T00:24:46;11.00;;;6.22;;
6388;SDS011;3227;42.654;23.360;2022-08-19T00:27:13;10.57;;;5.95;;
6388;SDS011;3227;42.654;23.360;2022-08-19T00:29:42;8.50;;;6.00;;
6388;SDS011;3227;42.654;23.360;2022-08-19T00:32:09;10.75;;;6.32;;
6388;SDS011;3227;42.654;23.360;2022-08-19T00:34:36;9.27;;;6.05;;
6388;SDS011;3227;42.654;23.360;2022-08-19T00:37:02;12.75;;;6.32;;
6388;SDS011;3227;42.654;23.360;2022-08-19T00:39:29;12.77;;;6.70;;
6388;SDS011;3227;42.654;23.360;2022-08-19T00:41:56;12.07;;;7.03;;
6388;SDS011;3227;42.654;23.360;2022-08-19T00:44:24;12.30;;;6.63;;
6388;SDS011;3227;42.654;23.360;2022-08-19T00:46:54;11.10;;;6.35;;
6388;SDS011;3227;42.654;23.360;2022-08-19T00:49:25;12.68;;;6.35;;
6388;SDS011;3227;42.654;23.360;2022-08-19T00:51:58;8.80;;;5.85;;
6388;SDS011;3227;42.654;23.360;2022-08-19T00:54:29;8.70;;;6.15;;
6388;SDS011;3227;42.654;23.360;2022-08-19T00:56:58;8.88;;;6.32;;
6388;SDS011;3227;42.654;23.360;2022-08-19T00:59:25;8.50;;;6.10;;
6388;SDS011;3227;42.654;23.360;2022-08-19T01:01:56;10.55;;;6.28;;
6388;SDS011;3227;42.654;23.360;2022-08-19T01:04:23;9.77;;;6.28;;
6388;SDS011;3227;42.654;23.360;2022-08-19T01:06:49;9.38;;;6.10;;
6388;SDS011;3227;42.654;23.360;2022-08-19T01:09:16;10.63;;;6.13;;
6388;SDS011;3227;42.654;23.360;2022-08-19T01:11:43;8.88;;;6.10;;
6388;SDS011;3227;42.654;23.360;2022-08-19T01:14:11;9.02;;;5.75;;
6388;SDS011;3227;42.654;23.360;2022-08-19T01:16:38;9.15;;;6.30;;
6388;SDS011;3227;42.654;23.360;2022-08-19T01:19:12;12.63;;;6.10;;
6388;SDS011;3227;42.654;23.360;2022-08-19T01:21:46;11.75;;;6.85;;
6388;SDS011;3227;42.654;23.360;2022-08-19T01:24:19;9.48;;;6.20;;
6388;SDS011;3227;42.654;23.360;2022-08-19T01:26:46;8.38;;;6.20;;
6388;SDS011;3227;42.654;23.360;2022-08-19T01:29:13;10.13;;;6.03;;
6388;SDS011;3227;42.654;23.360;2022-08-19T01:31:40;9.15;;;6.30;;
6388;SDS011;3227;42.654;23.360;2022-08-19T01:34:07;16.50;;;6.65;;
6388;SDS011;3227;42.654;23.360;2022-08-19T01:36:35;10.05;;;6.82;;
6388;SDS011;3227;42.654;23.360;2022-08-19T01:39:07;12.75;;;7.28;;
6388;SDS011;3227;42.654;23.360;2022-08-19T01:41:37;10.32;;;6.57;;
6388;SDS011;3227;42.654;23.360;2022-08-19T01:44:05;10.82;;;6.82;;
6388;SDS011;3227;42.654;23.360;2022-08-19T01:46:33;13.98;;;6.82;;
6388;SDS011;3227;42.654;23.360;2022-08-19T01:49:01;10.95;;;6.53;;
6388;SDS011;3227;42.654;23.360;2022-08-19T01:51:29;8.90;;;6.30;;
6388;SDS011;3227;42.654;23.360;2022-08-19T01:53:56;10.57;;;6.20;;
6388;SDS011;3227;42.654;23.360;2022-08-19T01:56:24;10.45;;;6.68;;
6388;SDS011;3227;42.654;23.360;2022-08-19T01:58:53;11.40;;;6.22;;
6388;SDS011;3227;42.654;23.360;2022-08-19T02:01:22;9.95;;;6.32;;
6388;SDS011;3227;42.654;23.360;2022-08-19T02:03:48;9.15;;;6.60;;
6388;SDS011;3227;42.654;23.360;2022-08-19T02:06:16;11.68;;;6.38;;
6388;SDS011;3227;42.654;23.360;2022-08-19T02:08:43;10.02;;;6.13;;
6388;SDS011;3227;42.654;23.360;2022-08-19T02:11:18;11.88;;;6.25;;
6388;SDS011;3227;42.654;23.360;2022-08-19T02:13:47;13.48;;;6.50;;
6388;SDS011;3227;42.654;23.360;2022-08-19T02:16:15;11.20;;;6.18;;
6388;SDS011;3227;42.654;23.360;2022-08-19T02:18:43;13.18;;;7.05;;
6388;SDS011;3227;42.654;23.360;2022-08-19T02:21:10;11.50;;;6.53;;
6388;SDS011;3227;42.654;23.360;2022-08-19T02:23:38;12.25;;;6.95;;
6388;SDS011;3227;42.654;23.360;2022-08-19T02:26:05;13.65;;;6.50;;
6388;SDS011;3227;42.654;23.360;2022-08-19T02:28:32;12.57;;;7.53;;
6388;SDS011;3227;42.654;23.360;2022-08-19T02:30:59;12.48;;;7.03;;
6388;SDS011;3227;42.654;23.360;2022-08-19T02:33:29;10.70;;;6.85;;
6388;SDS011;3227;42.654;23.360;2022-08-19T02:35:56;10.20;;;6.68;;
6388;SDS011;3227;42.654;23.360;2022-08-19T02:38:22;11.30;;;7.00;;
6388;SDS011;3227;42.654;23.360;2022-08-19T02:40:52;10.77;;;6.45;;
6388;SDS011;3227;42.654;23.360;2022-08-19T02:43:19;15.77;;;7.13;;
6388;SDS011;3227;42.654;23.360;2022-08-19T02:45:46;13.13;;;7.07;;
6388;SDS011;3227;42.654;23.360;2022-08-19T02:48:14;11.32;;;7.10;;
6388;SDS011;3227;42.654;23.360;2022-08-19T02:50:45;16.27;;;6.50;;
6388;SDS011;3227;42.654;23.360;2022-08-19T02:53:13;16.80;;;6.80;;
6388;SDS011;3227;42.654;23.360;2022-08-19T02:55:43;11.85;;;6.60;;
6388;SDS011;3227;42.654;23.360;2022-08-19T02:58:11;12.45;;;6.47;;
6388;SDS011;3227;42.654;23.360;2022-08-19T03:00:41;13.93;;;6.63;;
6388;SDS011;3227;42.654;23.360;2022-08-19T03:03:09;10.63;;;7.00;;
6388;SDS011;3227;42.654;23.360;2022-08-19T03:05:36;13.70;;;7.00;;
6388;SDS011;3227;42.654;23.360;2022-08-19T03:08:05;14.82;;;6.88;;
6388;SDS011;3227;42.654;23.360;2022-08-19T03:10:32;13.52;;;6.65;;
6388;SDS011;3227;42.654;23.360;2022-08-19T03:12:58;11.95;;;6.50;;
6388;SDS011;3227;42.654;23.360;2022-08-19T03:15:25;10.65;;;6.45;;
6388;SDS011;3227;42.654;23.360;2022-08-19T03:17:52;14.63;;;6.63;;
6388;SDS011;3227;42.654;23.360;2022-08-19T03:20:19;13.57;;;7.47;;
6388;SDS011;3227;42.654;23.360;2022-08-19T03:22:46;14.98;;;7.10;;
6388;SDS011;3227;42.654;23.360;2022-08-19T03:25:14;13.98;;;6.95;;
6388;SDS011;3227;42.654;23.360;2022-08-19T03:27:41;10.18;;;7.10;;
6388;SDS011;3227;42.654;23.360;2022-08-19T03:30:09;15.18;;;7.30;;
6388;SDS011;3227;42.654;23.360;2022-08-19T03:32:37;14.43;;;6.88;;
6388;SDS011;3227;42.654;23.360;2022-08-19T03:35:03;23.65;;;8.13;;
6388;SDS011;3227;42.654;23.360;2022-08-19T03:37:31;14.93;;;7.75;;
6388;SDS011;3227;42.654;23.360;2022-08-19T03:39:57;13.20;;;7.00;;
6388;SDS011;3227;42.654;23.360;2022-08-19T03:42:26;17.02;;;7.63;;
6388;SDS011;3227;42.654;23.360;2022-08-19T03:44:53;13.23;;;7.40;;
6388;SDS011;3227;42.654;23.360;2022-08-19T03:47:19;15.77;;;7.25;;
6388;SDS011;3227;42.654;23.360;2022-08-19T03:49:46;16.33;;;7.45;;
6388;SDS011;3227;42.654;23.360;2022-08-19T03:52:13;17.95;;;7.55;;
6388;SDS011;3227;42.654;23.360;2022-08-19T03:54:40;13.88;;;7.13;;
6388;SDS011;3227;42.654;23.360;2022-08-19T03:57:07;18.38;;;7.35;;
6388;SDS011;3227;42.654;23.360;2022-08-19T03:59:38;13.30;;;6.95;;
6388;SDS011;3227;42.654;23.360;2022-08-19T04:02:07;13.98;;;6.82;;
6388;SDS011;3227;42.654;23.360;2022-08-19T04:04:37;16.10;;;6.93;;
6388;SDS011;3227;42.654;23.360;2022-08-19T04:07:05;13.32;;;7.07;;
6388;SDS011;3227;42.654;23.360;2022-08-19T04:09:33;15.35;;;7.22;;
6388;SDS011;3227;42.654;23.360;2022-08-19T04:12:01;13.93;;;7.25;;
6388;SDS011;3227;42.654;23.360;2022-08-19T04:14:30;13.13;;;7.18;;
6388;SDS011;3227;42.654;23.360;2022-08-19T04:17:00;16.25;;;7.05;;
6388;SDS011;3227;42.654;23.360;2022-08-19T04:19:29;14.07;;;7.28;;
6388;SDS011;3227;42.654;23.360;2022-08-19T04:21:57;16.83;;;6.80;;
6388;SDS011;3227;42.654;23.360;2022-08-19T04:24:24;18.13;;;7.38;;
6388;SDS011;3227;42.654;23.360;2022-08-19T04:26:51;15.02;;;7.80;;
6388;SDS011;3227;42.654;23.360;2022-08-19T04:29:19;12.50;;;6.57;;
6388;SDS011;3227;42.654;23.360;2022-08-19T04:31:50;16.70;;;7.05;;
6388;SDS011;3227;42.654;23.360;2022-08-19T04:34:20;16.05;;;7.45;;
6388;SDS011;3227;42.654;23.360;2022-08-19T04:36:49;22.00;;;6.95;;
6388;SDS011;3227;42.654;23.360;2022-08-19T04:39:18;19.05;;;7.30;;
6388;SDS011;3227;42.654;23.360;2022-08-19T04:41:46;34.22;;;14.05;;
6388;SDS011;3227;42.654;23.360;2022-08-19T04:44:31;24.48;;;10.60;;
6388;SDS011;3227;42.654;23.360;2022-08-19T04:46:58;28.30;;;8.93;;
6388;SDS011;3227;42.654;23.360;2022-08-19T04:49:27;17.92;;;8.40;;
6388;SDS011;3227;42.654;23.360;2022-08-19T04:51:55;13.60;;;7.65;;
6388;SDS011;3227;42.654;23.360;2022-08-19T04:54:23;13.35;;;7.18;;
6388;SDS011;3227;42.654;23.360;2022-08-19T04:56:51;19.17;;;8.52;;
6388;SDS011;3227;42.654;23.360;2022-08-19T04:59:19;15.82;;;7.85;;
6388;SDS011;3227;42.654;23.360;2022-08-19T05:01:47;21.50;;;8.10;;
6388;SDS011;3227;42.654;23.360;2022-08-19T05:04:15;18.90;;;8.82;;
6388;SDS011;3227;42.654;23.360;2022-08-19T05:06:45;23.35;;;8.15;;
6388;SDS011;3227;42.654;23.360;2022-08-19T05:09:13;14.43;;;7.43;;
6388;SDS011;3227;42.654;23.360;2022-08-19T05:11:42;12.65;;;7.40;;
6388;SDS011;3227;42.654;23.360;2022-08-19T05:14:14;17.38;;;7.78;;
6388;SDS011;3227;42.654;23.360;2022-08-19T05:16:41;16.45;;;7.63;;
6388;SDS011;3227;42.654;23.360;2022-08-19T05:19:08;16.35;;;6.95;;
6388;SDS011;3227;42.654;23.360;2022-08-19T05:21:54;19.00;;;7.18;;
6388;SDS011;3227;42.654;23.360;2022-08-19T05:24:38;12.38;;;6.70;;
6388;SDS011;3227;42.654;23.360;2022-08-19T05:27:05;30.35;;;7.30;;
6388;SDS011;3227;42.654;23.360;2022-08-19T05:29:32;14.90;;;7.28;;
6388;SDS011;3227;42.654;23.360;2022-08-19T05:32:00;16.45;;;7.03;;
6388;SDS011;3227;42.654;23.360;2022-08-19T05:34:32;13.13;;;7.30;;
6388;SDS011;3227;42.654;23.360;2022-08-19T05:37:02;16.65;;;6.88;;
6388;SDS011;3227;42.654;23.360;2022-08-19T05:39:30;15.90;;;6.68;;
6388;SDS011;3227;42.654;23.360;2022-08-19T05:41:58;14.93;;;7.10;;
6388;SDS011;3227;42.654;23.360;2022-08-19T05:44:27;14.95;;;7.30;;
6388;SDS011;3227;42.654;23.360;2022-08-19T05:46:56;13.32;;;7.63;;
6388;SDS011;3227;42.654;23.360;2022-08-19T05:49:24;14.38;;;7.72;;
6388;SDS011;3227;42.654;23.360;2022-08-19T05:51:53;12.70;;;7.50;;
6388;SDS011;3227;42.654;23.360;2022-08-19T05:54:23;14.52;;;7.50;;
6388;SDS011;3227;42.654;23.360;2022-08-19T05:56:50;11.63;;;7.72;;
6388;SDS011;3227;42.654;23.360;2022-08-19T05:59:19;15.45;;;8.35;;
6388;SDS011;3227;42.654;23.360;2022-08-19T06:01:47;14.63;;;7.97;;
6388;SDS011;3227;42.654;23.360;2022-08-19T06:04:17;14.25;;;8.77;;
6388;SDS011;3227;42.654;23.360;2022-08-19T06:06:45;14.77;;;8.05;;
6388;SDS011;3227;42.654;23.360;2022-08-19T06:09:13;15.57;;;8.43;;
6388;SDS011;3227;42.654;23.360;2022-08-19T06:11:41;14.00;;;7.88;;
6388;SDS011;3227;42.654;23.360;2022-08-19T06:14:10;15.13;;;7.57;;
6388;SDS011;3227;42.654;23.360;2022-08-19T06:16:39;11.30;;;7.20;;
6388;SDS011;3227;42.654;23.360;2022-08-19T06:19:08;13.50;;;7.07;;
6388;SDS011;3227;42.654;23.360;2022-08-19T06:21:39;11.35;;;7.85;;
6388;SDS011;3227;42.654;23.360;2022-08-19T06:24:08;15.15;;;7.35;;
6388;SDS011;3227;42.654;23.360;2022-08-19T06:26:40;13.68;;;7.30;;
6388;SDS011;3227;42.654;23.360;2022-08-19T06:29:10;10.18;;;7.07;;
6388;SDS011;3227;42.654;23.360;2022-08-19T06:31:40;14.23;;;6.32;;
6388;SDS011;3227;42.654;23.360;2022-08-19T06:34:08;12.00;;;6.82;;
6388;SDS011;3227;42.654;23.360;2022-08-19T06:36:37;13.38;;;7.53;;
6388;SDS011;3227;42.654;23.360;2022-08-19T06:39:06;12.50;;;6.80;;
6388;SDS011;3227;42.654;23.360;2022-08-19T06:41:34;14.30;;;7.63;;
6388;SDS011;3227;42.654;23.360;2022-08-19T06:44:04;11.57;;;6.88;;
6388;SDS011;3227;42.654;23.360;2022-08-19T06:46:32;17.50;;;7.93;;
6388;SDS011;3227;42.654;23.360;2022-08-19T06:48:59;13.88;;;7.57;;
6388;SDS011;3227;42.654;23.360;2022-08-19T06:51:25;12.93;;;7.35;;
6388;SDS011;3227;42.654;23.360;2022-08-19T06:53:53;14.15;;;7.35;;
6388;SDS011;3227;42.654;23.360;2022-08-19T06:56:21;17.50;;;7.65;;
6388;SDS011;3227;42.654;23.360;2022-08-19T06:58:55;13.13;;;7.60;;
6388;SDS011;3227;42.654;23.360;2022-08-19T07:01:24;16.48;;;7.80;;
6388;SDS011;3227;42.654;23.360;2022-08-19T07:03:51;17.85;;;7.82;;
6388;SDS011;3227;42.654;23.360;2022-08-19T07:06:18;20.73;;;7.60;;
6388;SDS011;3227;42.654;23.360;2022-08-19T07:08:46;13.57;;;7.57;;
6388;SDS011;3227;42.654;23.360;2022-08-19T07:11:14;13.90;;;7.55;;
6388;SDS011;3227;42.654;23.360;2022-08-19T07:13:43;14.45;;;8.20;;
6388;SDS011;3227;42.654;23.360;2022-08-19T07:16:12;13.48;;;7.63;;
6388;SDS011;3227;42.654;23.360;2022-08-19T07:18:42;18.58;;;8.35;;
6388;SDS011;3227;42.654;23.360;2022-08-19T07:21:10;16.48;;;7.35;;
6388;SDS011;3227;42.654;23.360;2022-08-19T07:23:40;21.70;;;8.00;;
6388;SDS011;3227;42.654;23.360;2022-08-19T07:26:07;14.70;;;7.43;;
6388;SDS011;3227;42.654;23.360;2022-08-19T07:28:35;20.17;;;7.80;;
6388;SDS011;3227;42.654;23.360;2022-08-19T07:31:04;22.05;;;8.40;;
6388;SDS011;3227;42.654;23.360;2022-08-19T07:33:31;28.48;;;8.23;;
6388;SDS011;3227;42.654;23.360;2022-08-19T07:36:00;14.30;;;7.13;;
6388;SDS011;3227;42.654;23.360;2022-08-19T07:38:27;17.60;;;7.50;;
6388;SDS011;3227;42.654;23.360;2022-08-19T07:40:54;23.17;;;7.50;;
6388;SDS011;3227;42.654;23.360;2022-08-19T07:43:21;13.77;;;7.05;;
6388;SDS011;3227;42.654;23.360;2022-08-19T07:45:50;17.75;;;7.63;;
6388;SDS011;3227;42.654;23.360;2022-08-19T07:48:18;16.63;;;6.80;;
6388;SDS011;3227;42.654;23.360;2022-08-19T07:50:45;14.68;;;6.72;;
6388;SDS011;3227;42.654;23.360;2022-08-19T07:53:14;12.60;;;7.20;;
6388;SDS011;3227;42.654;23.360;2022-08-19T07:55:41;14.45;;;6.75;;
6388;SDS011;3227;42.654;23.360;2022-08-19T07:58:08;11.75;;;7.28;;
6388;SDS011;3227;42.654;23.360;2022-08-19T08:00:36;13.13;;;6.70;;
6388;SDS011;3227;42.654;23.360;2022-08-19T08:03:03;16.77;;;6.82;;
6388;SDS011;3227;42.654;23.360;2022-08-19T08:05:30;11.68;;;6.45;;
6388;SDS011;3227;42.654;23.360;2022-08-19T08:08:16;17.08;;;7.15;;
6388;SDS011;3227;42.654;23.360;2022-08-19T08:11:02;16.55;;;7.00;;
6388;SDS011;3227;42.654;23.360;2022-08-19T08:13:29;14.02;;;7.20;;
6388;SDS011;3227;42.654;23.360;2022-08-19T08:15:58;14.88;;;6.68;;
6388;SDS011;3227;42.654;23.360;2022-08-19T08:18:24;21.73;;;7.20;;
6388;SDS011;3227;42.654;23.360;2022-08-19T08:20:51;13.60;;;6.85;;
6388;SDS011;3227;42.654;23.360;2022-08-19T08:23:19;17.83;;;7.13;;
6388;SDS011;3227;42.654;23.360;2022-08-19T08:25:50;13.02;;;6.50;;
6388;SDS011;3227;42.654;23.360;2022-08-19T08:28:17;11.05;;;6.35;;
6388;SDS011;3227;42.654;23.360;2022-08-19T08:30:45;15.70;;;6.68;;
6388;SDS011;3227;42.654;23.360;2022-08-19T08:33:13;16.90;;;7.50;;
6388;SDS011;3227;42.654;23.360;2022-08-19T08:35:40;11.00;;;6.50;;
6388;SDS011;3227;42.654;23.360;2022-08-19T08:38:08;20.52;;;7.13;;
6388;SDS011;3227;42.654;23.360;2022-08-19T08:40:39;13.07;;;6.88;;
6388;SDS011;3227;42.654;23.360;2022-08-19T08:43:20;14.07;;;6.75;;
6388;SDS011;3227;42.654;23.360;2022-08-19T08:45:55;16.00;;;7.10;;
6388;SDS011;3227;42.654;23.360;2022-08-19T08:48:29;18.85;;;7.10;;
6388;SDS011;3227;42.654;23.360;2022-08-19T08:51:03;11.73;;;6.32;;
6388;SDS011;3227;42.654;23.360;2022-08-19T08:53:33;14.02;;;6.13;;
6388;SDS011;3227;42.654;23.360;2022-08-19T08:56:08;12.80;;;6.22;;
6388;SDS011;3227;42.654;23.360;2022-08-19T08:58:40;12.52;;;6.35;;
6388;SDS011;3227;42.654;23.360;2022-08-19T09:01:13;12.73;;;6.15;;
6388;SDS011;3227;42.654;23.360;2022-08-19T09:03:41;12.80;;;5.50;;
6388;SDS011;3227;42.654;23.360;2022-08-19T09:06:12;15.20;;;5.88;;
6388;SDS011;3227;42.654;23.360;2022-08-19T09:08:47;10.82;;;5.57;;
6388;SDS011;3227;42.654;23.360;2022-08-19T09:11:22;11.30;;;5.60;;
6388;SDS011;3227;42.654;23.360;2022-08-19T09:14:04;13.65;;;5.20;;
6388;SDS011;3227;42.654;23.360;2022-08-19T09:16:37;11.82;;;5.30;;
6388;SDS011;3227;42.654;23.360;2022-08-19T09:19:06;9.85;;;5.22;;
6388;SDS011;3227;42.654;23.360;2022-08-19T09:21:35;11.00;;;5.88;;
6388;SDS011;3227;42.654;23.360;2022-08-19T09:24:03;14.07;;;5.97;;
6388;SDS011;3227;42.654;23.360;2022-08-19T09:26:32;14.15;;;5.60;;
6388;SDS011;3227;42.654;23.360;2022-08-19T09:29:00;7.53;;;5.20;;
6388;SDS011;3227;42.654;23.360;2022-08-19T09:31:30;7.70;;;4.90;;
6388;SDS011;3227;42.654;23.360;2022-08-19T09:33:57;9.50;;;5.00;;
6388;SDS011;3227;42.654;23.360;2022-08-19T09:36:25;12.30;;;4.53;;
6388;SDS011;3227;42.654;23.360;2022-08-19T09:38:54;7.57;;;4.35;;
6388;SDS011;3227;42.654;23.360;2022-08-19T09:41:22;9.05;;;4.30;;
6388;SDS011;3227;42.654;23.360;2022-08-19T09:43:53;8.07;;;3.90;;
6388;SDS011;3227;42.654;23.360;2022-08-19T09:46:22;6.38;;;4.20;;
6388;SDS011;3227;42.654;23.360;2022-08-19T09:48:51;9.40;;;4.40;;
6388;SDS011;3227;42.654;23.360;2022-08-19T09:51:19;6.43;;;4.15;;
6388;SDS011;3227;42.654;23.360;2022-08-19T09:53:49;8.50;;;4.28;;
6388;SDS011;3227;42.654;23.360;2022-08-19T09:56:23;9.48;;;4.82;;
6388;SDS011;3227;42.654;23.360;2022-08-19T09:58:51;8.13;;;4.00;;
6388;SDS011;3227;42.654;23.360;2022-08-19T10:01:19;9.57;;;4.18;;
6388;SDS011;3227;42.654;23.360;2022-08-19T10:03:49;8.75;;;4.80;;
6388;SDS011;3227;42.654;23.360;2022-08-19T10:06:18;8.20;;;3.80;;
6388;SDS011;3227;42.654;23.360;2022-08-19T10:08:48;8.05;;;4.53;;
6388;SDS011;3227;42.654;23.360;2022-08-19T10:11:16;9.05;;;4.38;;
6388;SDS011;3227;42.654;23.360;2022-08-19T10:13:44;9.05;;;4.90;;
6388;SDS011;3227;42.654;23.360;2022-08-19T10:16:13;7.05;;;4.50;;
6388;SDS011;3227;42.654;23.360;2022-08-19T10:18:42;6.97;;;4.38;;
6388;SDS011;3227;42.654;23.360;2022-08-19T10:21:10;9.07;;;4.68;;
6388;SDS011;3227;42.654;23.360;2022-08-19T10:23:40;11.02;;;4.85;;
6388;SDS011;3227;42.654;23.360;2022-08-19T10:26:11;8.48;;;4.82;;
6388;SDS011;3227;42.654;23.360;2022-08-19T10:28:38;9.05;;;4.78;;
6388;SDS011;3227;42.654;23.360;2022-08-19T10:31:06;8.73;;;4.47;;
6388;SDS011;3227;42.654;23.360;2022-08-19T10:33:35;9.60;;;5.05;;
6388;SDS011;3227;42.654;23.360;2022-08-19T10:36:04;8.85;;;4.55;;
6388;SDS011;3227;42.654;23.360;2022-08-19T10:38:33;9.25;;;5.05;;
6388;SDS011;3227;42.654;23.360;2022-08-19T10:41:06;7.72;;;4.32;;
6388;SDS011;3227;42.654;23.360;2022-08-19T10:43:33;8.48;;;4.82;;
6388;SDS011;3227;42.654;23.360;2022-08-19T10:46:03;8.73;;;4.50;;
6388;SDS011;3227;42.654;23.360;2022-08-19T10:48:30;7.57;;;4.85;;
6388;SDS011;3227;42.654;23.360;2022-08-19T10:50:59;7.55;;;4.65;;
6388;SDS011;3227;42.654;23.360;2022-08-19T10:53:43;9.30;;;4.70;;
6388;SDS011;3227;42.654;23.360;2022-08-19T10:56:10;8.20;;;4.80;;
6388;SDS011;3227;42.654;23.360;2022-08-19T10:58:55;9.07;;;4.93;;
6388;SDS011;3227;42.654;23.360;2022-08-19T11:01:23;8.45;;;4.60;;
6388;SDS011;3227;42.654;23.360;2022-08-19T11:03:50;13.25;;;4.90;;
6388;SDS011;3227;42.654;23.360;2022-08-19T11:06:19;14.00;;;6.00;;
6388;SDS011;3227;42.654;23.360;2022-08-19T11:08:45;10.13;;;5.10;;
6388;SDS011;3227;42.654;23.360;2022-08-19T11:11:12;10.45;;;5.15;;
6388;SDS011;3227;42.654;23.360;2022-08-19T11:13:40;8.50;;;4.60;;
6388;SDS011;3227;42.654;23.360;2022-08-19T11:16:09;6.93;;;4.80;;
6388;SDS011;3227;42.654;23.360;2022-08-19T11:18:39;8.13;;;5.07;;
6388;SDS011;3227;42.654;23.360;2022-08-19T11:21:08;10.73;;;5.10;;
6388;SDS011;3227;42.654;23.360;2022-08-19T11:23:39;7.03;;;5.05;;
6388;SDS011;3227;42.654;23.360;2022-08-19T11:26:06;7.13;;;4.60;;
6388;SDS011;3227;42.654;23.360;2022-08-19T11:28:33;6.93;;;4.90;;
6388;SDS011;3227;42.654;23.360;2022-08-19T11:31:00;8.85;;;4.88;;
6388;SDS011;3227;42.654;23.360;2022-08-19T11:33:28;7.63;;;4.80;;
6388;SDS011;3227;42.654;23.360;2022-08-19T11:35:56;7.82;;;4.82;;
6388;SDS011;3227;42.654;23.360;2022-08-19T11:38:23;8.80;;;4.97;;
6388;SDS011;3227;42.654;23.360;2022-08-19T11:40:56;11.27;;;5.28;;
6388;SDS011;3227;42.654;23.360;2022-08-19T11:43:24;10.30;;;5.05;;
6388;SDS011;3227;42.654;23.360;2022-08-19T11:45:52;11.05;;;4.97;;
6388;SDS011;3227;42.654;23.360;2022-08-19T11:48:19;8.82;;;5.45;;
6388;SDS011;3227;42.654;23.360;2022-08-19T11:50:47;9.75;;;5.40;;
6388;SDS011;3227;42.654;23.360;2022-08-19T11:53:14;7.03;;;4.88;;
6388;SDS011;3227;42.654;23.360;2022-08-19T11:55:41;13.77;;;5.40;;
6388;SDS011;3227;42.654;23.360;2022-08-19T11:58:09;10.20;;;5.22;;
6388;SDS011;3227;42.654;23.360;2022-08-19T12:00:37;10.45;;;5.88;;
6388;SDS011;3227;42.654;23.360;2022-08-19T12:03:04;8.52;;;5.05;;
6388;SDS011;3227;42.654;23.360;2022-08-19T12:05:31;9.32;;;5.50;;
6388;SDS011;3227;42.654;23.360;2022-08-19T12:07:59;9.43;;;5.32;;
6388;SDS011;3227;42.654;23.360;2022-08-19T12:10:25;9.43;;;5.22;;
6388;SDS011;3227;42.654;23.360;2022-08-19T12:12:52;9.98;;;5.03;;
6388;SDS011;3227;42.654;23.360;2022-08-19T12:15:20;9.95;;;5.38;;
6388;SDS011;3227;42.654;23.360;2022-08-19T12:17:47;9.93;;;5.38;;
6388;SDS011;3227;42.654;23.360;2022-08-19T12:20:14;9.05;;;4.80;;
6388;SDS011;3227;42.654;23.360;2022-08-19T12:22:42;10.30;;;5.55;;
6388;SDS011;3227;42.654;23.360;2022-08-19T12:25:09;9.35;;;5.35;;
6388;SDS011;3227;42.654;23.360;2022-08-19T12:27:37;8.50;;;5.10;;
6388;SDS011;3227;42.654;23.360;2022-08-19T12:30:05;9.85;;;5.32;;
6388;SDS011;3227;42.654;23.360;2022-08-19T12:32:35;8.80;;;4.97;;
6388;SDS011;3227;42.654;23.360;2022-08-19T12:35:02;11.00;;;5.53;;
6388;SDS011;3227;42.654;23.360;2022-08-19T12:37:30;10.98;;;5.10;;
6388;SDS011;3227;42.654;23.360;2022-08-19T12:39:57;13.70;;;5.40;;
6388;SDS011;3227;42.654;23.360;2022-08-19T12:42:25;11.43;;;5.47;;
6388;SDS011;3227;42.654;23.360;2022-08-19T12:44:51;7.60;;;5.53;;
6388;SDS011;3227;42.654;23.360;2022-08-19T12:47:18;9.07;;;5.10;;
6388;SDS011;3227;42.654;23.360;2022-08-19T12:49:47;10.52;;;5.32;;
6388;SDS011;3227;42.654;23.360;2022-08-19T12:52:14;9.48;;;5.05;;
6388;SDS011;3227;42.654;23.360;2022-08-19T12:54:42;10.55;;;6.00;;
6388;SDS011;3227;42.654;23.360;2022-08-19T12:57:10;9.20;;;5.50;;
6388;SDS011;3227;42.654;23.360;2022-08-19T12:59:37;9.52;;;5.28;;
6388;SDS011;3227;42.654;23.360;2022-08-19T13:02:05;11.20;;;5.45;;
6388;SDS011;3227;42.654;23.360;2022-08-19T13:04:33;8.38;;;5.07;;
6388;SDS011;3227;42.654;23.360;2022-08-19T13:07:04;8.25;;;5.22;;
6388;SDS011;3227;42.654;23.360;2022-08-19T13:09:31;12.77;;;6.00;;
6388;SDS011;3227;42.654;23.360;2022-08-19T13:11:57;13.77;;;6.40;;
6388;SDS011;3227;42.654;23.360;2022-08-19T13:14:28;13.68;;;5.72;;
6388;SDS011;3227;42.654;23.360;2022-08-19T13:16:56;11.38;;;5.75;;
6388;SDS011;3227;42.654;23.360;2022-08-19T13:19:23;11.85;;;5.35;;
6388;SDS011;3227;42.654;23.360;2022-08-19T13:21:50;11.90;;;5.43;;
6388;SDS011;3227;42.654;23.360;2022-08-19T13:24:20;12.40;;;4.85;;
6388;SDS011;3227;42.654;23.360;2022-08-19T13:26:46;10.02;;;5.68;;
6388;SDS011;3227;42.654;23.360;2022-08-19T13:29:13;10.13;;;5.22;;
6388;SDS011;3227;42.654;23.360;2022-08-19T13:31:58;10.23;;;5.82;;
6388;SDS011;3227;42.654;23.360;2022-08-19T13:34:42;9.48;;;5.30;;
6388;SDS011;3227;42.654;23.360;2022-08-19T13:37:11;9.60;;;5.50;;
6388;SDS011;3227;42.654;23.360;2022-08-19T13:39:40;13.75;;;5.57;;
6388;SDS011;3227;42.654;23.360;2022-08-19T13:42:07;12.23;;;5.60;;
6388;SDS011;3227;42.654;23.360;2022-08-19T13:44:35;9.45;;;5.20;;
6388;SDS011;3227;42.654;23.360;2022-08-19T13:47:03;9.52;;;5.35;;
6388;SDS011;3227;42.654;23.360;2022-08-19T13:49:31;8.10;;;5.45;;
6388;SDS011;3227;42.654;23.360;2022-08-19T13:51:58;11.07;;;5.35;;
6388;SDS011;3227;42.654;23.360;2022-08-19T13:54:25;11.32;;;5.72;;
6388;SDS011;3227;42.654;23.360;2022-08-19T13:56:54;7.63;;;5.20;;
6388;SDS011;3227;42.654;23.360;2022-08-19T13:59:21;11.45;;;5.38;;
6388;SDS011;3227;42.654;23.360;2022-08-19T14:01:48;8.40;;;5.60;;
6388;SDS011;3227;42.654;23.360;2022-08-19T14:04:15;12.15;;;5.85;;
6388;SDS011;3227;42.654;23.360;2022-08-19T14:06:41;17.63;;;5.93;;
6388;SDS011;3227;42.654;23.360;2022-08-19T14:09:08;13.15;;;6.20;;
6388;SDS011;3227;42.654;23.360;2022-08-19T14:11:35;10.45;;;5.38;;
6388;SDS011;3227;42.654;23.360;2022-08-19T14:14:03;10.75;;;5.47;;
6388;SDS011;3227;42.654;23.360;2022-08-19T14:16:30;9.40;;;5.47;;
6388;SDS011;3227;42.654;23.360;2022-08-19T14:18:57;11.00;;;5.63;;
6388;SDS011;3227;42.654;23.360;2022-08-19T14:21:24;12.02;;;5.82;;
6388;SDS011;3227;42.654;23.360;2022-08-19T14:23:51;7.82;;;5.47;;
6388;SDS011;3227;42.654;23.360;2022-08-19T14:26:19;10.63;;;5.30;;
6388;SDS011;3227;42.654;23.360;2022-08-19T14:28:47;9.25;;;5.50;;
6388;SDS011;3227;42.654;23.360;2022-08-19T14:31:16;8.50;;;5.57;;
6388;SDS011;3227;42.654;23.360;2022-08-19T14:33:45;12.35;;;5.65;;
6388;SDS011;3227;42.654;23.360;2022-08-19T14:36:12;12.60;;;5.90;;
6388;SDS011;3227;42.654;23.360;2022-08-19T14:38:39;11.38;;;5.65;;
6388;SDS011;3227;42.654;23.360;2022-08-19T14:41:07;10.38;;;5.30;;
6388;SDS011;3227;42.654;23.360;2022-08-19T14:43:36;13.73;;;5.80;;
6388;SDS011;3227;42.654;23.360;2022-08-19T14:46:03;10.05;;;5.57;;
6388;SDS011;3227;42.654;23.360;2022-08-19T14:48:32;11.30;;;5.75;;
6388;SDS011;3227;42.654;23.360;2022-08-19T14:50:58;10.98;;;6.28;;
6388;SDS011;3227;42.654;23.360;2022-08-19T14:53:25;11.63;;;6.00;;
6388;SDS011;3227;42.654;23.360;2022-08-19T14:55:52;10.23;;;5.45;;
6388;SDS011;3227;42.654;23.360;2022-08-19T14:58:19;11.65;;;5.53;;